createdAt,value
2018-03-20T00:00:24.483Z,49.47
2018-03-20T00:02:52.039Z,50.97
2018-03-20T00:05:19.645Z,50.78
2018-03-20T00:07:47.205Z,52.57
2018-03-20T00:10:14.744Z,51.35
2018-03-20T00:12:42.268Z,53.04
2018-03-20T00:15:09.815Z,52.62
2018-03-20T00:17:37.357Z,50.73
2018-03-20T00:20:04.887Z,50.95
2018-03-20T00:22:32.401Z,51.85
2018-03-20T00:24:59.928Z,52.76
2018-03-20T00:27:27.449Z,51.15
2018-03-20T00:29:54.978Z,50.86
2018-03-20T00:32:22.525Z,50.68
2018-03-20T00:34:50.165Z,50.85
2018-03-20T00:37:17.690Z,50.88
2018-03-20T00:39:45.285Z,53.01
2018-03-20T00:42:12.844Z,51.13
2018-03-20T00:44:40.369Z,50.89
2018-03-20T00:47:07.898Z,50.92
2018-03-20T00:49:35.424Z,51.02
2018-03-20T00:52:02.949Z,51.51
2018-03-20T00:54:30.545Z,51.04
2018-03-20T00:56:58.069Z,53.11
2018-03-20T00:59:25.661Z,53.33
2018-03-20T01:01:53.188Z,51.86
2018-03-20T01:04:20.749Z,51.48
2018-03-20T01:06:48.340Z,51.75
2018-03-20T01:09:15.870Z,51.51
2018-03-20T01:11:43.393Z,51.67
2018-03-20T01:14:10.916Z,51.66
2018-03-20T01:16:38.450Z,51.53
2018-03-20T01:19:05.976Z,52.27
2018-03-20T01:21:33.496Z,53.69
2018-03-20T01:24:01.026Z,55.05
2018-03-20T01:26:28.646Z,54.67
2018-03-20T01:28:56.276Z,54.06
2018-03-20T01:31:23.804Z,53.30
2018-03-20T01:33:51.325Z,52.83
2018-03-20T01:36:18.850Z,52.25
2018-03-20T01:38:46.377Z,54.46
2018-03-20T01:41:13.906Z,53.45
2018-03-20T01:43:41.431Z,54.56
2018-03-20T01:46:08.955Z,53.28
2018-03-20T01:48:36.473Z,54.89
2018-03-20T01:51:04.114Z,55.48
2018-03-20T01:53:31.642Z,55.29
2018-03-20T01:55:59.253Z,54.74
2018-03-20T01:58:26.854Z,55.65
2018-03-20T02:00:54.389Z,56.90
2018-03-20T02:03:21.909Z,56.78
2018-03-20T02:05:49.437Z,55.39
2018-03-20T02:08:16.961Z,56.33
2018-03-20T02:10:44.492Z,56.21
2018-03-20T02:13:12.000Z,55.43
2018-03-20T02:15:39.606Z,56.29
2018-03-20T02:18:07.138Z,57.00
2018-03-20T02:20:34.657Z,54.94
2018-03-20T02:23:02.190Z,56.55
2018-03-20T02:25:29.720Z,56.37
2018-03-20T02:27:57.241Z,54.85
2018-03-20T02:30:24.766Z,54.41
2018-03-20T02:32:52.300Z,53.98
2018-03-20T02:35:19.887Z,53.70
2018-03-20T02:37:47.443Z,53.77
2018-03-20T02:40:15.002Z,54.12
2018-03-20T02:42:42.538Z,55.57
2018-03-20T02:45:10.057Z,55.08
2018-03-20T02:47:37.590Z,55.94
2018-03-20T02:50:05.119Z,56.52
2018-03-20T02:52:32.634Z,56.85
2018-03-20T02:55:00.158Z,54.78
2018-03-20T02:57:27.692Z,56.97
2018-03-20T04:15:52.202Z,59.09
2018-03-20T04:18:19.725Z,61.26
2018-03-20T04:20:47.255Z,61.48
2018-03-20T04:23:14.791Z,58.41
2018-03-20T04:25:42.366Z,59.84
2018-03-20T04:28:09.897Z,62.96
2018-03-20T04:30:37.441Z,59.01
2018-03-20T04:33:05.055Z,58.75
2018-03-20T04:35:32.618Z,59.59
2018-03-20T04:38:00.150Z,61.53
2018-03-20T04:40:27.674Z,63.65
2018-03-20T04:42:55.204Z,62.20
2018-03-20T04:45:22.854Z,59.34
2018-03-20T04:47:50.389Z,59.90
2018-03-20T04:50:17.917Z,59.08
2018-03-20T04:52:45.450Z,58.74
2018-03-20T04:55:12.965Z,58.52
2018-03-20T04:57:40.481Z,60.15
2018-03-20T05:00:08.012Z,58.78
2018-03-20T05:02:35.543Z,59.02
2018-03-20T05:05:03.069Z,61.43
2018-03-20T05:07:30.693Z,59.80
2018-03-20T05:09:58.253Z,58.19
2018-03-20T05:12:25.782Z,59.37
2018-03-20T05:14:53.296Z,57.56
2018-03-20T05:17:20.830Z,57.64
2018-03-20T05:22:57.741Z,57.47
2018-03-20T05:25:25.260Z,57.47
2018-03-20T05:27:52.786Z,57.66
2018-03-20T05:30:20.307Z,56.95
2018-03-20T05:32:47.834Z,57.61
2018-03-20T05:35:15.358Z,57.37
2018-03-20T05:37:42.884Z,57.23
2018-03-20T05:40:10.410Z,57.53
2018-03-20T05:42:37.974Z,56.86
2018-03-20T05:45:05.494Z,56.65
2018-03-20T05:47:33.736Z,57.25
2018-03-20T05:50:05.780Z,57.77
2018-03-20T05:52:33.330Z,56.81
2018-03-20T05:55:00.860Z,56.58
2018-03-20T05:57:28.417Z,56.52
2018-03-20T05:59:56.040Z,56.53
2018-03-20T06:02:23.574Z,56.38
2018-03-20T06:04:51.153Z,56.77
2018-03-20T06:07:18.679Z,57.33
2018-03-20T06:09:46.217Z,56.76
2018-03-20T06:12:13.832Z,56.22
2018-03-20T06:14:41.374Z,56.40
2018-03-20T06:17:08.898Z,57.06
2018-03-20T06:19:36.423Z,57.18
2018-03-20T06:22:03.948Z,57.60
2018-03-20T06:24:31.470Z,57.00
2018-03-20T06:26:59.099Z,57.73
2018-03-20T06:29:26.636Z,57.73
2018-03-20T06:31:54.176Z,58.07
2018-03-20T06:34:21.741Z,58.04
2018-03-20T06:36:49.303Z,57.59
2018-03-20T06:39:16.888Z,57.30
2018-03-20T06:41:44.430Z,58.52
2018-03-20T06:44:11.958Z,58.75
2018-03-20T06:46:39.483Z,61.85
2018-03-20T06:49:07.025Z,60.84
2018-03-20T06:51:34.561Z,61.30
2018-03-20T06:54:02.089Z,65.77
2018-03-20T06:56:29.603Z,66.97
2018-03-20T06:58:57.128Z,66.81
2018-03-20T07:01:24.665Z,65.44
2018-03-20T07:03:52.198Z,66.54
2018-03-20T07:06:19.748Z,69.62
2018-03-20T07:08:47.274Z,71.00
2018-03-20T07:11:14.805Z,72.04
2018-03-20T07:13:42.342Z,71.03
2018-03-20T07:16:09.868Z,71.10
2018-03-20T07:18:37.410Z,72.03
2018-03-20T07:21:04.942Z,71.69
2018-03-20T07:23:32.470Z,73.32
2018-03-20T07:25:59.992Z,73.45
2018-03-20T07:28:27.587Z,73.70
2018-03-20T07:30:55.109Z,73.45
2018-03-20T07:33:22.636Z,75.00
2018-03-20T07:35:50.157Z,71.70
2018-03-20T07:38:17.689Z,72.97
2018-03-20T07:40:45.224Z,73.79
2018-03-20T07:43:12.851Z,75.17
2018-03-20T07:45:40.388Z,73.03
2018-03-20T07:48:07.922Z,73.25
2018-03-20T07:50:36.040Z,72.76
2018-03-20T07:53:03.558Z,72.93
2018-03-20T07:55:31.088Z,72.78
2018-03-20T07:57:58.618Z,74.80
2018-03-20T08:00:26.154Z,76.09
2018-03-20T08:02:53.690Z,76.14
2018-03-20T08:05:21.228Z,75.07
2018-03-20T08:07:48.861Z,75.38
2018-03-20T08:10:16.385Z,74.84
2018-03-20T08:12:43.930Z,74.87
2018-03-20T08:15:11.469Z,76.36
2018-03-20T08:17:38.998Z,73.56
2018-03-20T08:20:06.525Z,75.14
2018-03-20T08:22:34.113Z,76.00
2018-03-20T08:25:01.642Z,76.64
2018-03-20T08:27:29.198Z,74.67
2018-03-20T08:29:56.717Z,76.48
2018-03-20T08:32:24.341Z,77.44
2018-03-20T08:34:51.875Z,75.23
2018-03-20T08:37:19.406Z,77.68
2018-03-20T08:39:47.039Z,74.69
2018-03-20T08:42:14.630Z,75.05
2018-03-20T08:44:42.144Z,73.24
2018-03-20T08:47:09.719Z,74.00
2018-03-20T08:49:37.305Z,74.04
2018-03-20T08:52:04.937Z,73.33
2018-03-20T08:54:32.473Z,72.98
2018-03-20T08:56:59.994Z,72.30
2018-03-20T08:59:27.539Z,72.15
2018-03-20T09:01:55.068Z,73.60
2018-03-20T09:04:22.767Z,75.51
2018-03-20T09:06:50.297Z,72.98
2018-03-20T09:09:17.827Z,72.51
2018-03-20T09:11:45.356Z,75.58
2018-03-20T09:14:12.864Z,74.21
2018-03-20T09:16:40.382Z,72.83
2018-03-20T09:19:07.908Z,72.22
2018-03-20T09:21:35.568Z,72.02
2018-03-20T09:24:03.098Z,72.45
2018-03-20T09:26:30.645Z,72.46
2018-03-20T09:28:59.011Z,72.79
2018-03-20T09:31:26.589Z,72.40
2018-03-20T09:33:54.183Z,71.97
2018-03-20T09:36:21.740Z,73.19
2018-03-20T09:38:49.296Z,74.27
2018-03-20T09:41:16.832Z,74.95
2018-03-20T09:43:44.455Z,73.41
2018-03-20T09:46:12.001Z,74.67
2018-03-20T09:48:39.543Z,75.01
2018-03-20T09:51:07.066Z,74.51
2018-03-20T09:53:34.597Z,74.47
2018-03-20T09:56:02.120Z,74.40
2018-03-20T09:58:29.655Z,76.17
2018-03-20T10:00:57.160Z,75.59
2018-03-20T10:03:24.702Z,75.63
2018-03-20T10:05:52.278Z,75.31
2018-03-20T10:08:19.838Z,75.80
2018-03-20T10:10:47.386Z,76.39
2018-03-20T10:13:14.915Z,75.71
2018-03-20T10:15:42.498Z,75.96
2018-03-20T10:18:10.027Z,76.90
2018-03-20T10:20:37.626Z,75.58
2018-03-20T10:23:05.146Z,75.15
2018-03-20T10:25:32.737Z,75.66
2018-03-20T10:28:00.296Z,75.96
2018-03-20T10:30:27.827Z,76.00
2018-03-20T10:32:55.349Z,75.72
2018-03-20T10:35:22.979Z,76.70
2018-03-20T10:37:50.534Z,77.87
2018-03-20T10:40:18.105Z,77.68
2018-03-20T10:42:45.757Z,77.67
2018-03-20T10:45:13.273Z,76.60
2018-03-20T10:47:40.799Z,79.16
2018-03-20T10:50:08.340Z,78.77
2018-03-20T10:52:35.849Z,78.68
2018-03-20T10:55:03.458Z,79.36
2018-03-20T10:57:30.979Z,78.77
2018-03-20T10:59:58.507Z,79.18
2018-03-20T11:02:31.986Z,78.29
2018-03-20T11:04:59.501Z,78.36
2018-03-20T11:07:27.105Z,78.87
2018-03-20T11:09:54.617Z,79.14
2018-03-20T11:12:22.213Z,78.81
2018-03-20T11:14:49.740Z,78.30
2018-03-20T11:17:17.263Z,79.06
2018-03-20T11:19:44.790Z,79.16
2018-03-20T11:22:12.313Z,78.68
2018-03-20T11:24:39.869Z,79.10
2018-03-20T11:27:07.398Z,78.76
2018-03-20T11:29:34.930Z,78.51
2018-03-20T11:32:02.457Z,78.75
2018-03-20T11:34:29.974Z,78.73
2018-03-20T11:36:57.613Z,77.79
2018-03-20T11:39:25.709Z,77.45
2018-03-20T11:41:53.271Z,77.86
2018-03-20T11:44:20.798Z,77.33
2018-03-20T11:46:48.313Z,77.77
2018-03-20T11:49:15.914Z,78.07
2018-03-20T11:51:43.532Z,78.17
2018-03-20T11:54:11.142Z,78.13
2018-03-20T11:56:38.669Z,78.48
2018-03-20T11:59:06.192Z,78.34
2018-03-20T12:01:33.719Z,78.32
2018-03-20T12:04:01.280Z,78.55
2018-03-20T12:06:28.941Z,77.73
2018-03-20T12:09:08.383Z,77.63
2018-03-20T12:11:35.939Z,77.27
2018-03-20T12:14:03.448Z,76.90
2018-03-20T12:16:30.981Z,77.83
2018-03-20T12:18:58.520Z,77.63
2018-03-20T12:21:26.044Z,77.96
2018-03-20T12:23:53.637Z,77.83
2018-03-20T12:26:21.162Z,77.51
2018-03-20T12:28:48.682Z,77.51
2018-03-20T12:31:16.205Z,77.09
2018-03-20T12:33:43.742Z,76.81
2018-03-20T12:36:11.265Z,76.57
2018-03-20T12:38:38.779Z,76.35
2018-03-20T12:41:06.310Z,75.36
2018-03-20T12:43:34.015Z,74.88
2018-03-20T12:46:01.530Z,75.08
2018-03-20T12:48:29.072Z,74.82
2018-03-20T12:50:56.628Z,74.93
2018-03-20T12:53:24.155Z,74.62
2018-03-20T12:55:51.677Z,74.88
2018-03-20T12:58:19.198Z,74.35
2018-03-20T13:00:46.730Z,73.48
2018-03-20T13:03:14.244Z,74.01
2018-03-20T13:05:41.769Z,73.42
2018-03-20T13:08:09.416Z,73.35
2018-03-20T13:10:36.986Z,72.97
2018-03-20T13:13:04.526Z,72.54
2018-03-20T13:15:32.196Z,72.74
2018-03-20T13:18:00.780Z,73.28
2018-03-20T13:20:28.423Z,72.65
2018-03-20T13:22:55.995Z,72.27
2018-03-20T13:25:23.557Z,72.34
2018-03-20T13:27:51.109Z,72.76
2018-03-20T13:30:18.696Z,72.64
2018-03-20T13:32:46.236Z,72.93
2018-03-20T13:35:13.771Z,72.95
2018-03-20T13:37:41.281Z,73.03
2018-03-20T13:40:08.819Z,73.12
2018-03-20T13:42:36.367Z,73.17
2018-03-20T13:45:03.885Z,72.96
2018-03-20T13:47:31.470Z,73.47
2018-03-20T13:49:58.986Z,73.28
2018-03-20T13:52:26.617Z,73.41
2018-03-20T13:54:54.142Z,73.88
2018-03-20T13:57:21.670Z,74.12
2018-03-20T13:59:49.197Z,74.36
2018-03-20T14:02:16.721Z,74.43
2018-03-20T14:04:44.244Z,74.58
2018-03-20T14:07:11.757Z,75.09
2018-03-20T14:09:39.334Z,74.83
2018-03-20T14:12:06.857Z,74.90
2018-03-20T14:14:34.453Z,75.77
2018-03-20T14:17:01.989Z,75.16
2018-03-20T14:19:29.511Z,75.44
2018-03-20T14:21:57.132Z,74.69
2018-03-20T14:24:24.659Z,74.70
2018-03-20T14:26:52.202Z,74.65
2018-03-20T14:29:19.714Z,74.28
2018-03-20T14:31:47.227Z,74.35
2018-03-20T14:34:14.841Z,74.21
2018-03-20T14:36:42.352Z,74.14
2018-03-20T14:39:09.880Z,73.89
2018-03-20T14:41:37.408Z,73.88
2018-03-20T14:44:04.944Z,73.89
2018-03-20T14:46:32.462Z,73.81
2018-03-20T14:48:59.995Z,73.58
2018-03-20T14:51:27.518Z,73.83
2018-03-20T14:56:21.952Z,73.58
2018-03-20T14:58:49.482Z,73.59
2018-03-20T15:01:16.998Z,73.10
2018-03-20T15:03:44.531Z,72.92
2018-03-20T15:06:12.062Z,72.66
2018-03-20T15:08:39.578Z,72.48
2018-03-20T15:11:07.090Z,71.92
2018-03-20T15:13:34.810Z,71.75
2018-03-20T15:16:02.367Z,72.13
2018-03-20T15:18:29.880Z,71.81
2018-03-20T15:20:57.403Z,72.31
2018-03-20T15:23:25.005Z,72.56
2018-03-20T15:25:52.534Z,71.89
2018-03-20T15:28:20.184Z,71.29
2018-03-20T15:30:47.773Z,70.74
2018-03-20T15:33:15.275Z,69.16
2018-03-20T15:35:42.812Z,68.76
2018-03-20T15:38:10.337Z,68.37
2018-03-20T15:40:37.853Z,65.95
2018-03-20T15:43:05.389Z,64.80
2018-03-20T15:45:32.916Z,64.17
2018-03-20T15:48:00.424Z,64.02
2018-03-20T15:50:27.927Z,63.69
2018-03-20T15:52:55.477Z,62.98
2018-03-20T15:55:23.086Z,62.58
2018-03-20T15:57:50.609Z,62.11
2018-03-20T16:00:18.138Z,61.35
2018-03-20T16:02:45.661Z,61.60
2018-03-20T16:05:13.184Z,60.38
2018-03-20T16:07:40.782Z,60.23
2018-03-20T16:10:08.343Z,60.64
2018-03-20T16:12:35.853Z,59.82
2018-03-20T16:15:03.371Z,59.33
2018-03-20T16:17:30.900Z,60.00
2018-03-20T16:19:58.407Z,60.84
2018-03-20T16:22:25.922Z,60.92
2018-03-20T16:24:53.429Z,61.10
2018-03-20T16:27:21.062Z,61.47
2018-03-20T16:29:48.586Z,61.59
2018-03-20T16:32:16.097Z,61.82
2018-03-20T16:34:43.668Z,62.08
2018-03-20T16:37:11.146Z,61.88
2018-03-20T16:39:38.690Z,62.04
2018-03-20T16:42:06.313Z,62.20
2018-03-20T16:44:33.837Z,62.23
2018-03-20T16:47:01.362Z,62.13
2018-03-20T16:49:28.872Z,62.51
2018-03-20T16:51:56.383Z,62.76
2018-03-20T16:54:23.889Z,62.90
2018-03-20T16:56:51.445Z,63.38
2018-03-20T16:59:19.094Z,63.21
2018-03-20T17:01:46.571Z,63.19
2018-03-20T17:04:14.091Z,63.31
2018-03-20T17:06:41.609Z,63.17
2018-03-20T17:09:09.329Z,63.82
2018-03-20T17:11:36.839Z,63.54
2018-03-20T17:14:04.357Z,63.72
2018-03-20T17:16:31.878Z,64.22
2018-03-20T17:18:59.402Z,64.44
2018-03-20T17:21:26.939Z,64.96
2018-03-20T17:23:54.460Z,65.09
2018-03-20T17:26:21.979Z,65.69
2018-03-20T17:28:49.513Z,65.70
2018-03-20T17:31:17.070Z,65.46
2018-03-20T17:33:44.664Z,65.66
2018-03-20T17:36:12.173Z,65.26
2018-03-20T17:38:39.709Z,64.86
2018-03-20T17:41:07.342Z,65.00
2018-03-20T17:43:34.960Z,64.75
2018-03-20T17:46:02.484Z,63.98
2018-03-20T17:48:29.989Z,63.67
2018-03-20T17:50:57.492Z,63.56
2018-03-20T17:53:26.684Z,63.73
2018-03-20T17:55:54.211Z,63.62
2018-03-20T17:58:21.766Z,63.64
2018-03-20T18:00:49.331Z,63.65
2018-03-20T18:03:16.915Z,63.85
2018-03-20T18:05:44.476Z,63.71
2018-03-20T18:08:12.036Z,63.90
2018-03-20T18:10:39.600Z,63.97
2018-03-20T18:13:07.110Z,64.06
2018-03-20T18:15:34.655Z,63.95
2018-03-20T18:18:02.165Z,64.32
2018-03-20T18:20:29.680Z,64.33
2018-03-20T18:22:57.260Z,64.70
2018-03-20T18:25:24.857Z,64.76
2018-03-20T18:27:52.372Z,65.12
2018-03-20T18:30:19.901Z,65.39
2018-03-20T18:32:47.550Z,65.35
2018-03-20T18:35:15.091Z,65.54
2018-03-20T18:37:42.635Z,65.71
2018-03-20T18:40:10.148Z,65.43
2018-03-20T18:42:37.771Z,65.76
2018-03-20T18:45:05.293Z,66.04
2018-03-20T18:47:32.819Z,65.98
2018-03-20T18:50:00.355Z,66.15
2018-03-20T18:52:27.869Z,66.35
2018-03-20T18:54:55.786Z,66.75
2018-03-20T18:57:23.299Z,67.13
2018-03-20T18:59:50.801Z,66.88
2018-03-20T19:02:18.526Z,67.20
2018-03-20T19:04:46.051Z,67.37
2018-03-20T19:07:13.580Z,67.57
2018-03-20T19:09:41.247Z,67.80
2018-03-20T19:12:08.910Z,67.87
2018-03-20T19:14:36.606Z,67.88
2018-03-20T19:17:04.099Z,68.04
2018-03-20T19:19:31.610Z,68.37
2018-03-20T19:21:59.134Z,68.36
2018-03-20T19:24:26.714Z,68.71
2018-03-20T19:26:54.232Z,68.80
2018-03-20T19:29:21.828Z,68.54
2018-03-20T19:31:49.372Z,68.16
2018-03-20T19:34:16.902Z,69.28
2018-03-20T19:36:44.425Z,69.32
2018-03-20T19:39:11.966Z,69.41
2018-03-20T19:41:39.526Z,68.98
2018-03-20T19:44:07.044Z,69.31
2018-03-20T19:46:34.577Z,69.92
2018-03-20T19:49:02.105Z,69.67
2018-03-20T19:51:29.630Z,70.33
2018-03-20T19:53:57.188Z,70.53
2018-03-20T19:56:24.732Z,70.46
2018-03-20T19:58:52.345Z,70.74
2018-03-20T20:01:19.904Z,70.24
2018-03-20T20:03:47.427Z,70.42
2018-03-20T20:06:15.047Z,70.73
2018-03-20T20:08:42.523Z,70.60
2018-03-20T20:11:10.138Z,71.10
2018-03-20T20:13:37.667Z,70.74
2018-03-20T20:16:05.169Z,70.22
2018-03-20T20:18:32.698Z,70.69
2018-03-20T20:21:00.219Z,71.43
2018-03-20T20:23:27.735Z,71.10
2018-03-20T20:25:55.273Z,70.96
2018-03-20T20:28:22.795Z,70.78
2018-03-20T20:30:50.313Z,71.20
2018-03-20T20:33:17.851Z,71.04
2018-03-20T20:35:45.386Z,71.36
2018-03-20T20:38:12.937Z,71.52
2018-03-20T20:40:40.568Z,71.02
2018-03-20T20:43:08.088Z,70.56
2018-03-20T20:45:35.619Z,71.55
2018-03-20T20:48:03.142Z,71.02
2018-03-20T20:50:30.667Z,71.86
2018-03-20T20:52:58.187Z,71.48
2018-03-20T20:55:25.707Z,72.25
2018-03-20T20:57:53.223Z,71.93
2018-03-20T21:00:20.737Z,72.46
2018-03-20T21:02:48.245Z,72.39
2018-03-20T21:05:15.849Z,72.49
2018-03-20T21:07:43.405Z,72.34
2018-03-20T21:10:10.926Z,71.54
2018-03-20T21:12:38.442Z,72.32
2018-03-20T21:15:05.957Z,72.26
2018-03-20T21:17:33.548Z,73.18
2018-03-20T21:20:01.115Z,72.85
2018-03-20T21:22:28.635Z,73.52
2018-03-20T21:24:56.153Z,72.69
2018-03-20T21:27:23.690Z,72.60
2018-03-20T21:29:51.250Z,73.51
2018-03-20T21:32:18.778Z,73.47
2018-03-20T21:34:46.301Z,73.73
2018-03-20T21:37:13.810Z,73.72
2018-03-20T21:39:41.335Z,72.91
2018-03-20T21:42:08.852Z,74.01
2018-03-20T21:44:36.403Z,74.28
2018-03-20T21:47:03.912Z,73.48
2018-03-20T21:49:31.420Z,74.31
2018-03-20T21:51:58.936Z,74.30
2018-03-20T21:54:26.446Z,74.11
2018-03-20T21:56:53.962Z,74.76
2018-03-20T21:59:21.552Z,73.83
2018-03-20T22:01:49.115Z,73.83
2018-03-20T22:04:16.631Z,74.55
2018-03-20T22:06:44.161Z,73.65
2018-03-20T22:09:11.791Z,73.80
2018-03-20T22:11:39.304Z,73.71
2018-03-20T22:14:06.814Z,74.37
2018-03-20T22:16:34.358Z,74.85
2018-03-20T22:19:01.904Z,73.61
2018-03-20T22:21:29.479Z,73.33
2018-03-20T22:23:56.993Z,73.44
2018-03-20T22:26:24.538Z,74.82
2018-03-20T22:28:52.072Z,74.58
2018-03-20T22:31:19.596Z,73.47
2018-03-20T22:33:47.125Z,73.87
2018-03-20T22:36:14.631Z,74.23
2018-03-20T22:38:42.212Z,75.67
2018-03-20T22:41:09.770Z,74.77
2018-03-20T22:43:37.291Z,74.64
2018-03-20T22:46:04.857Z,74.62
2018-03-20T22:48:32.377Z,75.78
2018-03-20T22:50:59.930Z,75.36
2018-03-20T22:53:27.450Z,75.91
2018-03-20T22:55:54.985Z,75.40
2018-03-20T22:58:22.515Z,75.05
2018-03-20T23:00:50.044Z,75.74
2018-03-20T23:03:17.604Z,76.11
2018-03-20T23:05:45.125Z,76.45
2018-03-20T23:08:12.709Z,75.84
2018-03-20T23:10:40.285Z,75.75
2018-03-20T23:13:07.829Z,76.33
2018-03-20T23:15:35.361Z,75.55
2018-03-20T23:18:02.923Z,76.35
2018-03-20T23:20:30.468Z,76.41
2018-03-20T23:22:58.020Z,75.15
2018-03-20T23:25:25.529Z,76.78
2018-03-20T23:27:53.071Z,76.65
2018-03-20T23:30:20.590Z,76.31
2018-03-20T23:32:48.104Z,76.88
2018-03-20T23:35:15.619Z,76.42
2018-03-20T23:37:43.127Z,76.53
2018-03-20T23:40:10.651Z,76.26
2018-03-20T23:42:38.184Z,76.00
2018-03-20T23:45:05.715Z,77.06
2018-03-20T23:47:33.245Z,75.96
2018-03-20T23:50:00.840Z,76.41
2018-03-20T23:52:28.360Z,76.84
2018-03-20T23:54:55.894Z,77.18
2018-03-20T23:57:23.496Z,75.67
2018-03-20T23:59:51.050Z,76.89
